Time;durP1;ratioP1;P1;durP2;ratioP2;P2;SDS_P1;SDS_P2;PMS_P1;PMS_P2;Temp;Humidity;BMP_temperature;BMP_pressure;BME280_temperature;BME280_humidity;BME280_pressure;Samples;Min_cycle;Max_cycle;Signal;HPM_P1;HPM_P2
2022/11/14 00:02:15;;;;;;;50.43;32.20;;;8.60;99.90;;;;;;5111952;28;20518;-69
2022/11/14 00:04:45;;;;;;;51.40;32.43;;;8.60;99.90;;;;;;5111304;28;20461;-68
2022/11/14 00:07:12;;;;;;;54.87;30.40;;;8.60;99.90;;;;;;5109697;28;20457;-69
2022/11/14 00:09:42;;;;;;;53.00;33.53;;;8.60;99.90;;;;;;5110725;28;20460;-69
2022/11/14 00:12:09;;;;;;;55.70;32.50;;;8.60;99.90;;;;;;5109926;28;20468;-69
2022/11/14 00:14:36;;;;;;;57.07;32.60;;;8.60;99.90;;;;;;5109205;28;20483;-69
2022/11/14 00:17:04;;;;;;;54.50;32.63;;;8.60;99.90;;;;;;5109533;28;20449;-69
2022/11/14 00:19:32;;;;;;;58.87;33.43;;;8.60;99.90;;;;;;5109283;28;20514;-69
2022/11/14 00:21:59;;;;;;;55.23;32.80;;;8.60;99.90;;;;;;5108998;28;20454;-69
2022/11/14 00:24:26;;;;;;;54.77;31.60;;;8.60;99.90;;;;;;5110292;28;20468;-69
2022/11/14 00:26:54;;;;;;;53.93;32.77;;;8.50;99.90;;;;;;5110413;28;20485;-68
2022/11/14 00:29:21;;;;;;;58.63;31.87;;;8.50;99.90;;;;;;5110747;28;20464;-69
2022/11/14 00:31:48;;;;;;;54.80;32.10;;;8.50;99.90;;;;;;5110150;28;20468;-70
2022/11/14 00:34:15;;;;;;;52.10;32.53;;;8.50;99.90;;;;;;5107698;28;20558;-70
2022/11/14 00:36:42;;;;;;;52.93;32.83;;;8.50;99.90;;;;;;5109710;28;20468;-69
2022/11/14 00:39:12;;;;;;;58.33;33.93;;;8.50;99.90;;;;;;5109296;28;20445;-69
2022/11/14 00:41:39;;;;;;;53.57;32.40;;;8.40;99.90;;;;;;5108833;28;20488;-68
2022/11/14 00:44:07;;;;;;;52.53;32.87;;;8.40;99.90;;;;;;5110687;28;20454;-69
2022/11/14 00:46:34;;;;;;;63.30;34.90;;;8.40;99.90;;;;;;5109041;28;20490;-69
2022/11/14 00:49:01;;;;;;;52.20;34.77;;;8.40;99.90;;;;;;5108689;28;20473;-68
2022/11/14 00:51:28;;;;;;;55.00;33.93;;;8.40;99.90;;;;;;5109809;28;20441;-69
2022/11/14 00:53:55;;;;;;;58.87;33.27;;;8.40;99.90;;;;;;5110490;28;20453;-69
2022/11/14 00:56:22;;;;;;;60.07;33.57;;;8.30;99.90;;;;;;5109638;28;20445;-69
2022/11/14 00:58:49;;;;;;;59.50;33.73;;;8.30;99.90;;;;;;5110694;28;20464;-69
2022/11/14 01:01:18;;;;;;;58.13;34.10;;;8.30;99.90;;;;;;5111870;28;20477;-69
2022/11/14 01:03:48;;;;;;;62.00;33.50;;;8.30;99.90;;;;;;5109906;28;20449;-69
2022/11/14 01:06:15;;;;;;;65.70;35.57;;;8.30;99.90;;;;;;5110464;28;20850;-68
2022/11/14 01:08:42;;;;;;;58.40;32.97;;;8.20;99.90;;;;;;5108913;28;20450;-69
2022/11/14 01:11:11;;;;;;;66.63;35.70;;;8.20;99.90;;;;;;5108896;28;20479;-69
2022/11/14 01:13:39;;;;;;;60.57;34.23;;;8.20;99.90;;;;;;5109005;28;20453;-69
2022/11/14 01:16:07;;;;;;;62.33;34.07;;;8.20;99.90;;;;;;5109613;28;20484;-69
2022/11/14 01:18:37;;;;;;;64.60;34.03;;;8.20;99.90;;;;;;5109010;28;20446;-69
2022/11/14 01:21:05;;;;;;;70.63;36.20;;;8.10;99.90;;;;;;5108472;28;20497;-69
2022/11/14 01:23:32;;;;;;;66.23;36.27;;;8.10;99.90;;;;;;5108803;28;20556;-69
2022/11/14 01:26:03;;;;;;;65.20;34.83;;;8.10;99.90;;;;;;5108515;28;20480;-68
2022/11/14 01:28:30;;;;;;;65.40;34.97;;;8.10;99.90;;;;;;5110695;28;20554;-68
2022/11/14 01:30:57;;;;;;;65.90;35.23;;;8.00;99.90;;;;;;5109679;28;20479;-69
2022/11/14 01:33:24;;;;;;;63.20;34.83;;;8.00;99.90;;;;;;5107091;28;20457;-69
2022/11/14 01:35:52;;;;;;;63.33;37.07;;;8.00;99.90;;;;;;5107623;28;20450;-69
2022/11/14 01:38:19;;;;;;;70.37;38.00;;;8.00;99.90;;;;;;5108674;28;20453;-68
2022/11/14 01:40:46;;;;;;;65.03;35.47;;;8.00;99.90;;;;;;5108477;28;20485;-68
2022/11/14 01:43:28;;;;;;;66.50;34.20;;;8.00;99.90;;;;;;5109014;28;20457;-69
2022/11/14 01:45:58;;;;;;;69.60;35.10;;;7.90;99.90;;;;;;5109957;28;20438;-68
2022/11/14 01:48:30;;;;;;;67.90;36.63;;;7.90;99.90;;;;;;5109407;28;20589;-68
2022/11/14 01:51:03;;;;;;;65.77;35.33;;;7.90;99.90;;;;;;5108512;28;20434;-69
2022/11/14 01:53:30;;;;;;;65.83;35.73;;;7.90;99.90;;;;;;5108615;28;20495;-69
2022/11/14 01:56:03;;;;;;;65.43;36.70;;;7.80;99.90;;;;;;5109564;28;20457;-70
2022/11/14 01:58:31;;;;;;;62.50;36.50;;;7.80;99.90;;;;;;5110089;28;20434;-69
2022/11/14 02:00:59;;;;;;;71.43;36.50;;;7.80;99.90;;;;;;5110011;28;20477;-69
2022/11/14 02:03:26;;;;;;;67.17;36.17;;;7.80;99.90;;;;;;5109269;28;20453;-69
2022/11/14 02:05:54;;;;;;;60.43;34.23;;;7.80;99.90;;;;;;5108407;28;20457;-69
2022/11/14 02:08:24;;;;;;;72.40;36.67;;;7.70;99.90;;;;;;5111593;28;20449;-69
2022/11/14 02:10:51;;;;;;;71.70;37.17;;;7.80;99.90;;;;;;5109430;28;20448;-69
2022/11/14 02:13:18;;;;;;;69.20;35.83;;;7.80;99.90;;;;;;5110589;28;20441;-69
2022/11/14 02:15:44;;;;;;;77.17;36.47;;;7.80;99.90;;;;;;5110524;28;20453;-69
2022/11/14 02:18:12;;;;;;;70.03;35.13;;;7.80;99.90;;;;;;5110762;28;20457;-69
2022/11/14 02:20:42;;;;;;;70.40;36.17;;;7.90;99.90;;;;;;5110437;28;20488;-69
2022/11/14 02:23:10;;;;;;;70.13;38.27;;;7.90;99.90;;;;;;5113306;28;20461;-69
2022/11/14 02:25:39;;;;;;;63.27;35.30;;;7.90;99.90;;;;;;5111279;28;20517;-68
2022/11/14 02:28:07;;;;;;;65.50;37.13;;;8.00;99.90;;;;;;5111920;28;20929;-69
2022/11/14 02:30:34;;;;;;;66.97;36.97;;;8.00;99.90;;;;;;5113040;28;20506;-69
2022/11/14 02:33:01;;;;;;;71.33;35.10;;;8.10;99.90;;;;;;5112565;28;20515;-68
2022/11/14 02:35:28;;;;;;;62.30;35.13;;;8.10;99.90;;;;;;5111575;28;20479;-69
2022/11/14 02:37:56;;;;;;;66.60;35.87;;;8.10;99.90;;;;;;5112006;28;20449;-69
2022/11/14 02:40:23;;;;;;;65.03;35.13;;;8.10;99.90;;;;;;5109974;28;20474;-69
2022/11/14 02:42:50;;;;;;;72.40;36.80;;;8.20;99.90;;;;;;5109704;28;20453;-69
2022/11/14 02:45:19;;;;;;;66.57;35.03;;;8.20;99.90;;;;;;5111188;28;20494;-69
2022/11/14 02:47:46;;;;;;;60.03;31.43;;;8.20;99.90;;;;;;5111937;28;20536;-69
2022/11/14 02:50:13;;;;;;;65.80;35.07;;;8.20;99.90;;;;;;5111194;28;20506;-69
2022/11/14 02:52:40;;;;;;;71.93;34.67;;;8.30;99.90;;;;;;5112037;28;20453;-69
2022/11/14 02:55:09;;;;;;;55.80;32.40;;;8.30;99.90;;;;;;5111951;28;20454;-69
2022/11/14 02:57:36;;;;;;;66.53;35.80;;;8.30;99.90;;;;;;5111214;28;20457;-69
2022/11/14 03:00:04;;;;;;;66.83;35.27;;;8.40;99.90;;;;;;5112101;28;20773;-68
2022/11/14 03:02:31;;;;;;;63.37;33.30;;;8.40;99.90;;;;;;5111373;28;20473;-68
2022/11/14 03:04:58;;;;;;;61.43;33.63;;;8.30;99.90;;;;;;5109706;28;20485;-69
2022/11/14 03:07:25;;;;;;;66.47;32.77;;;8.30;99.90;;;;;;5110961;28;20526;-69
2022/11/14 03:09:52;;;;;;;68.67;35.90;;;8.30;99.90;;;;;;5110289;28;20859;-69
2022/11/14 03:12:20;;;;;;;69.67;34.90;;;8.30;99.90;;;;;;5109682;28;20456;-69
2022/11/14 03:14:47;;;;;;;67.13;34.70;;;8.20;99.90;;;;;;5111334;28;20449;-69
2022/11/14 03:17:14;;;;;;;71.47;35.77;;;8.20;99.90;;;;;;5110169;28;20453;-69
2022/11/14 03:19:41;;;;;;;66.30;34.50;;;8.10;99.90;;;;;;5110308;28;20450;-69
2022/11/14 03:22:08;;;;;;;65.20;35.10;;;8.10;99.90;;;;;;5111365;28;20507;-68
2022/11/14 03:24:35;;;;;;;77.80;36.67;;;8.10;99.90;;;;;;5111014;28;20460;-68
2022/11/14 03:27:02;;;;;;;64.53;33.70;;;8.10;99.90;;;;;;5110299;28;20575;-68
2022/11/14 03:29:30;;;;;;;70.57;34.80;;;8.00;99.90;;;;;;5110072;28;20457;-69
2022/11/14 03:31:57;;;;;;;74.60;34.87;;;8.00;99.90;;;;;;5109396;28;20453;-68
2022/11/14 03:34:24;;;;;;;66.57;34.90;;;8.00;99.90;;;;;;5109272;28;20480;-69
2022/11/14 03:36:51;;;;;;;68.97;34.13;;;8.00;99.90;;;;;;5109722;28;20453;-69
2022/11/14 03:39:18;;;;;;;74.40;36.80;;;8.00;99.90;;;;;;5110982;28;20468;-68
2022/11/14 03:41:45;;;;;;;75.60;37.40;;;8.00;99.90;;;;;;5110489;28;20488;-68
2022/11/14 03:44:12;;;;;;;74.03;36.77;;;8.00;99.90;;;;;;5111892;28;20943;-69
2022/11/14 03:46:40;;;;;;;67.20;35.33;;;7.90;99.90;;;;;;5110276;28;20590;-68
2022/11/14 03:49:07;;;;;;;73.77;35.23;;;7.90;99.90;;;;;;5110265;28;20453;-68
2022/11/14 03:51:34;;;;;;;68.03;35.27;;;7.90;99.90;;;;;;5110815;28;20484;-69
2022/11/14 03:54:02;;;;;;;72.10;36.50;;;7.90;99.90;;;;;;5109311;28;20524;-68
2022/11/14 03:56:28;;;;;;;76.80;37.30;;;7.90;99.90;;;;;;5109752;28;20453;-68
2022/11/14 03:58:55;;;;;;;68.23;34.57;;;7.90;99.90;;;;;;5109937;28;20449;-68
2022/11/14 04:01:22;;;;;;;66.47;34.00;;;7.90;99.90;;;;;;5114758;28;20473;-69
2022/11/14 04:03:51;;;;;;;76.50;38.20;;;7.90;99.90;;;;;;5113575;28;20460;-69
2022/11/14 04:06:17;;;;;;;73.27;35.57;;;7.90;99.90;;;;;;5112271;28;20482;-68
2022/11/14 04:08:44;;;;;;;66.77;33.87;;;7.90;99.90;;;;;;5111886;28;20453;-69
2022/11/14 04:11:11;;;;;;;70.73;36.30;;;7.90;99.90;;;;;;5110468;28;20454;-69
2022/11/14 04:13:38;;;;;;;73.13;36.00;;;7.90;99.90;;;;;;5109052;28;20521;-69
2022/11/14 04:16:07;;;;;;;66.87;32.70;;;7.90;99.90;;;;;;5109967;28;20449;-69
2022/11/14 04:18:34;;;;;;;70.97;34.40;;;7.80;99.90;;;;;;5109768;28;20453;-68
2022/11/14 04:21:02;;;;;;;72.33;36.50;;;7.80;99.90;;;;;;5109336;28;20526;-69
2022/11/14 04:23:31;;;;;;;70.33;33.63;;;7.80;99.90;;;;;;5109707;28;20458;-68
2022/11/14 04:25:58;;;;;;;68.30;34.13;;;7.80;99.90;;;;;;5108067;28;20485;-69
2022/11/14 04:28:25;;;;;;;77.90;35.93;;;7.80;99.90;;;;;;5109954;28;20457;-69
2022/11/14 04:30:52;;;;;;;69.13;34.70;;;7.80;99.90;;;;;;5108879;28;20449;-68
2022/11/14 04:33:19;;;;;;;67.37;36.37;;;7.80;99.90;;;;;;5108818;28;20477;-68
2022/11/14 04:35:46;;;;;;;71.30;33.17;;;7.70;99.90;;;;;;5110296;28;20450;-68
2022/11/14 04:38:14;;;;;;;73.80;37.23;;;7.70;99.90;;;;;;5109181;28;20449;-68
2022/11/14 04:40:41;;;;;;;75.80;35.00;;;7.70;99.90;;;;;;5108472;28;20917;-68
2022/11/14 04:43:08;;;;;;;72.60;35.43;;;7.60;99.90;;;;;;5108460;28;20518;-68
2022/11/14 04:45:35;;;;;;;81.33;36.07;;;7.60;99.90;;;;;;5109732;28;20458;-69
2022/11/14 04:48:01;;;;;;;75.13;34.87;;;7.60;99.90;;;;;;5110044;28;20515;-69
2022/11/14 04:50:28;;;;;;;76.23;37.50;;;7.50;99.90;;;;;;5108681;28;20453;-69
2022/11/14 04:52:55;;;;;;;78.87;36.60;;;7.50;99.90;;;;;;5109744;28;20445;-69
2022/11/14 04:55:24;;;;;;;73.87;36.90;;;7.50;99.90;;;;;;5109553;28;20453;-69
2022/11/14 04:57:54;;;;;;;85.07;37.90;;;7.40;99.90;;;;;;5109211;28;20453;-69
2022/11/14 05:00:22;;;;;;;77.90;34.37;;;7.40;99.90;;;;;;5109447;28;20524;-69
2022/11/14 05:02:49;;;;;;;69.27;33.50;;;7.40;99.90;;;;;;5108028;28;20507;-69
2022/11/14 05:05:16;;;;;;;76.43;35.37;;;7.30;99.90;;;;;;5107253;28;20449;-69
2022/11/14 05:07:43;;;;;;;81.53;38.00;;;7.40;99.90;;;;;;5106992;28;20488;-69
2022/11/14 05:10:10;;;;;;;87.47;37.07;;;7.40;99.90;;;;;;5106295;28;20453;-68
2022/11/14 05:12:38;;;;;;;85.20;38.80;;;7.40;99.90;;;;;;5105823;28;20458;-68
2022/11/14 05:15:07;;;;;;;79.97;36.70;;;7.40;99.90;;;;;;5106280;28;20496;-68
2022/11/14 05:17:33;;;;;;;81.20;37.27;;;7.30;99.90;;;;;;5107924;28;20468;-68
2022/11/14 05:20:00;;;;;;;77.17;36.90;;;7.40;99.90;;;;;;5106758;28;20909;-68
2022/11/14 05:22:27;;;;;;;85.33;38.73;;;7.30;99.90;;;;;;5102608;28;20489;-68
2022/11/14 05:24:54;;;;;;;90.37;36.80;;;7.30;99.90;;;;;;5104599;28;20458;-69
2022/11/14 05:27:21;;;;;;;75.93;36.30;;;7.30;99.90;;;;;;5104500;28;20467;-69
2022/11/14 05:29:49;;;;;;;85.47;37.10;;;7.30;99.90;;;;;;5103524;28;20449;-68
2022/11/14 05:32:16;;;;;;;80.20;35.37;;;7.30;99.90;;;;;;5103372;28;20450;-68
2022/11/14 05:34:43;;;;;;;84.33;37.93;;;7.20;99.90;;;;;;5109112;28;20449;-68
2022/11/14 05:37:10;;;;;;;90.43;38.10;;;7.20;99.90;;;;;;5109318;28;20456;-69
2022/11/14 05:39:37;;;;;;;82.07;38.07;;;7.20;99.90;;;;;;5106692;28;20449;-69
2022/11/14 05:42:05;;;;;;;78.53;36.47;;;7.20;99.90;;;;;;5108180;28;20473;-69
2022/11/14 05:44:32;;;;;;;89.00;37.00;;;7.20;99.90;;;;;;5109003;28;20459;-69
2022/11/14 05:47:01;;;;;;;88.53;37.43;;;7.30;99.90;;;;;;5108995;28;20465;-68
2022/11/14 05:49:28;;;;;;;88.13;37.50;;;7.30;99.90;;;;;;5109079;28;20900;-69
2022/11/14 05:51:55;;;;;;;78.80;36.10;;;7.30;99.90;;;;;;5109436;28;20461;-69
2022/11/14 05:54:22;;;;;;;75.83;38.40;;;7.40;99.90;;;;;;5108747;28;20457;-69
2022/11/14 05:56:49;;;;;;;83.57;36.13;;;7.40;99.90;;;;;;5108907;28;20511;-69
2022/11/14 05:59:16;;;;;;;75.53;37.30;;;7.40;99.90;;;;;;5108956;28;20490;-69
2022/11/14 06:01:43;;;;;;;74.57;36.40;;;7.50;99.90;;;;;;5109921;28;20476;-69
2022/11/14 06:04:13;;;;;;;79.43;36.13;;;7.50;99.90;;;;;;5109482;28;20454;-69
2022/11/14 06:06:40;;;;;;;69.07;35.00;;;7.50;99.90;;;;;;5109889;28;20437;-69
2022/11/14 06:09:07;;;;;;;73.73;33.50;;;7.60;99.90;;;;;;5109385;28;20472;-69
2022/11/14 06:11:34;;;;;;;75.70;34.73;;;7.60;99.90;;;;;;5106506;28;20449;-69
2022/11/14 06:14:01;;;;;;;77.30;36.30;;;7.70;99.90;;;;;;5110359;28;20469;-69
2022/11/14 06:16:28;;;;;;;70.47;34.63;;;7.70;99.90;;;;;;5115128;28;20453;-69
2022/11/14 06:18:56;;;;;;;78.73;35.03;;;7.70;99.90;;;;;;5110305;28;20487;-69
2022/11/14 06:21:25;;;;;;;75.03;36.77;;;7.70;99.90;;;;;;5107153;28;20462;-68
2022/11/14 06:23:52;;;;;;;79.07;34.40;;;7.70;99.90;;;;;;5104765;28;20454;-69
2022/11/14 06:26:22;;;;;;;81.07;37.07;;;7.70;99.90;;;;;;5106499;28;20484;-69
2022/11/14 06:28:49;;;;;;;71.60;36.17;;;7.80;99.90;;;;;;5105729;28;20492;-68
2022/11/14 06:31:17;;;;;;;78.73;36.70;;;7.70;99.90;;;;;;5106721;28;20465;-70
2022/11/14 06:33:44;;;;;;;70.33;34.30;;;7.80;99.90;;;;;;5104674;28;20492;-69
2022/11/14 06:36:12;;;;;;;69.43;34.30;;;7.80;99.90;;;;;;5102135;28;20711;-68
2022/11/14 06:38:41;;;;;;;74.07;32.40;;;7.70;99.90;;;;;;5106966;28;20457;-69
2022/11/14 06:41:10;;;;;;;92.73;37.10;;;7.80;99.90;;;;;;5107128;28;20487;-68
2022/11/14 06:43:38;;;;;;;75.90;34.63;;;7.90;99.90;;;;;;5104884;28;20473;-68
2022/11/14 06:46:07;;;;;;;70.83;34.50;;;7.90;99.90;;;;;;5104952;28;20465;-69
2022/11/14 06:48:35;;;;;;;78.13;34.80;;;7.90;99.90;;;;;;5105779;28;20479;-69
2022/11/14 06:51:04;;;;;;;77.33;35.50;;;7.90;99.90;;;;;;5104970;28;20461;-69
2022/11/14 06:53:33;;;;;;;70.13;34.30;;;7.80;99.90;;;;;;5106303;28;20483;-68
2022/11/14 06:56:03;;;;;;;70.77;35.30;;;7.80;99.90;;;;;;5106905;28;20457;-69
2022/11/14 06:58:31;;;;;;;76.60;35.87;;;7.80;99.90;;;;;;5108094;28;20468;-69
2022/11/14 07:01:04;;;;;;;77.53;35.10;;;7.80;99.90;;;;;;5110598;28;20457;-69
2022/11/14 07:03:31;;;;;;;69.30;34.03;;;7.80;99.90;;;;;;5112174;28;20855;-69
2022/11/14 07:05:58;;;;;;;80.27;38.13;;;7.80;99.90;;;;;;5111151;28;20449;-69
2022/11/14 07:08:25;;;;;;;85.70;36.43;;;7.80;99.90;;;;;;5111694;28;20458;-68
2022/11/14 07:10:52;;;;;;;73.57;36.00;;;7.80;99.90;;;;;;5109506;28;20453;-69
2022/11/14 07:13:20;;;;;;;75.60;36.87;;;7.80;99.90;;;;;;5104511;28;20449;-69
2022/11/14 07:15:51;;;;;;;81.10;35.70;;;7.90;99.90;;;;;;5105664;28;20449;-69
2022/11/14 07:18:18;;;;;;;77.77;37.10;;;7.90;99.90;;;;;;5106320;28;20453;-69
2022/11/14 07:20:46;;;;;;;73.07;36.90;;;7.90;99.90;;;;;;5105477;28;20893;-69
2022/11/14 07:23:13;;;;;;;73.00;34.80;;;8.00;99.90;;;;;;5105996;28;20481;-69
2022/11/14 07:25:40;;;;;;;79.80;34.60;;;8.00;99.90;;;;;;5104699;28;20488;-69
2022/11/14 07:28:07;;;;;;;76.67;35.90;;;8.00;99.90;;;;;;5103601;28;20460;-69
2022/11/14 07:30:36;;;;;;;76.00;35.70;;;8.00;99.90;;;;;;5105106;28;20449;-68
2022/11/14 07:33:03;;;;;;;69.77;33.53;;;8.00;99.90;;;;;;5102805;28;20457;-69
2022/11/14 07:35:29;;;;;;;70.67;34.07;;;8.00;99.90;;;;;;5101508;28;20457;-69
2022/11/14 07:38:02;;;;;;;64.90;33.00;;;8.10;99.90;;;;;;5101297;28;20481;-69
2022/11/14 07:40:29;;;;;;;78.03;35.90;;;8.10;99.90;;;;;;5102142;28;20466;-69
2022/11/14 07:42:59;;;;;;;70.13;33.27;;;8.10;99.90;;;;;;5102679;28;20517;-69
2022/11/14 07:45:26;;;;;;;73.70;35.13;;;8.10;99.90;;;;;;5103046;28;20868;-69
2022/11/14 07:47:56;;;;;;;66.57;33.60;;;8.10;99.90;;;;;;5103376;28;20454;-69
2022/11/14 07:50:23;;;;;;;62.23;31.60;;;8.10;99.90;;;;;;5106064;28;20522;-69
2022/11/14 07:52:51;;;;;;;74.80;34.43;;;8.10;99.90;;;;;;5105852;28;20458;-69
2022/11/14 07:55:18;;;;;;;67.07;33.30;;;8.10;99.90;;;;;;5107966;28;20449;-69
2022/11/14 07:57:45;;;;;;;62.03;30.83;;;8.10;99.90;;;;;;5107351;28;20453;-69
2022/11/14 08:00:14;;;;;;;71.47;32.90;;;8.10;99.90;;;;;;5107478;28;20897;-68
2022/11/14 08:02:42;;;;;;;65.83;33.10;;;8.10;99.90;;;;;;5107778;28;20477;-69
2022/11/14 08:05:10;;;;;;;62.03;30.10;;;8.10;99.90;;;;;;5108471;28;20464;-68
2022/11/14 08:07:37;;;;;;;65.90;34.33;;;8.10;99.90;;;;;;5107439;28;20449;-69
2022/11/14 08:10:05;;;;;;;70.50;33.27;;;8.10;99.90;;;;;;5107736;28;20453;-68
2022/11/14 08:12:32;;;;;;;70.40;32.33;;;8.20;99.90;;;;;;5106083;28;20512;-68
2022/11/14 08:14:59;;;;;;;66.07;31.20;;;8.10;99.90;;;;;;5106517;28;20546;-69
2022/11/14 08:17:26;;;;;;;78.70;34.27;;;8.20;99.90;;;;;;5106263;28;20484;-69
2022/11/14 08:19:52;;;;;;;68.90;31.20;;;8.20;99.90;;;;;;5106776;28;20445;-69
2022/11/14 08:22:21;;;;;;;76.87;34.73;;;8.30;99.90;;;;;;5106212;28;20794;-68
2022/11/14 08:24:48;;;;;;;70.67;32.53;;;8.40;99.90;;;;;;5107277;28;20457;-69
2022/11/14 08:27:15;;;;;;;63.33;32.97;;;8.40;99.90;;;;;;5106609;28;20434;-69
2022/11/14 08:29:42;;;;;;;65.40;31.23;;;8.40;99.90;;;;;;5106118;28;20980;-69
2022/11/14 08:32:10;;;;;;;62.17;31.67;;;8.50;99.90;;;;;;5105438;28;20453;-69
2022/11/14 08:34:36;;;;;;;72.97;32.83;;;8.50;99.90;;;;;;5106210;28;20476;-70
2022/11/14 08:37:03;;;;;;;62.33;31.60;;;8.60;99.90;;;;;;5106713;28;20464;-69
2022/11/14 08:39:32;;;;;;;75.00;34.47;;;8.60;99.90;;;;;;5107801;28;20460;-68
2022/11/14 08:41:59;;;;;;;61.23;30.63;;;8.60;99.90;;;;;;5107744;28;20490;-69
2022/11/14 08:44:26;;;;;;;68.50;31.20;;;8.70;99.90;;;;;;5106321;28;20453;-69
2022/11/14 08:46:53;;;;;;;59.57;32.60;;;8.70;99.90;;;;;;5106149;28;20577;-68
2022/11/14 08:49:20;;;;;;;62.83;31.90;;;8.70;99.90;;;;;;5107438;28;20454;-69
2022/11/14 08:51:47;;;;;;;67.07;30.80;;;8.70;99.90;;;;;;5108441;28;20462;-69
2022/11/14 08:54:14;;;;;;;62.67;31.67;;;8.70;99.90;;;;;;5108521;28;20450;-69
2022/11/14 08:56:42;;;;;;;61.57;32.10;;;8.70;99.90;;;;;;5107921;28;20453;-70
2022/11/14 08:59:09;;;;;;;65.77;31.30;;;8.80;99.90;;;;;;5106853;28;20450;-70
2022/11/14 09:01:36;;;;;;;57.80;30.73;;;8.90;99.90;;;;;;5107552;28;20464;-69
2022/11/14 09:04:03;;;;;;;62.60;30.67;;;8.90;99.90;;;;;;5110470;28;20469;-70
2022/11/14 09:06:30;;;;;;;56.07;29.20;;;9.00;99.90;;;;;;5113622;28;20453;-69
2022/11/14 09:08:58;;;;;;;55.20;29.50;;;9.00;99.90;;;;;;5115736;28;20461;-70
2022/11/14 09:11:25;;;;;;;56.93;28.93;;;9.10;99.90;;;;;;5115514;28;20449;-69
2022/11/14 09:13:53;;;;;;;59.50;29.30;;;9.00;99.90;;;;;;5114035;28;20445;-68
2022/11/14 09:16:20;;;;;;;55.57;29.00;;;9.00;99.90;;;;;;5111744;28;20441;-69
2022/11/14 09:18:47;;;;;;;56.40;27.73;;;9.00;99.90;;;;;;5113169;28;20457;-70
2022/11/14 09:21:14;;;;;;;60.50;30.27;;;9.00;99.90;;;;;;5112341;28;20458;-69
2022/11/14 09:23:41;;;;;;;55.90;28.93;;;9.00;99.90;;;;;;5112046;28;20473;-69
2022/11/14 09:26:10;;;;;;;60.30;28.07;;;9.00;99.90;;;;;;5112351;28;20558;-69
2022/11/14 09:28:37;;;;;;;56.57;29.33;;;9.00;99.90;;;;;;5111755;28;20453;-69
2022/11/14 09:31:08;;;;;;;59.97;28.67;;;9.00;99.90;;;;;;5113389;28;20477;-70
2022/11/14 09:33:35;;;;;;;54.57;30.10;;;9.00;99.90;;;;;;5114344;28;20445;-69
2022/11/14 09:36:04;;;;;;;56.93;30.30;;;9.00;99.90;;;;;;5114848;28;20449;-69
2022/11/14 09:38:31;;;;;;;60.37;28.47;;;9.10;99.90;;;;;;5115244;28;20457;-69
2022/11/14 09:41:09;;;;;;;55.80;28.63;;;9.10;99.90;;;;;;5114233;28;20500;-69
2022/11/14 09:43:53;;;;;;;55.97;27.20;;;9.20;99.90;;;;;;5115103;28;20461;-69
2022/11/14 09:46:24;;;;;;;57.37;29.03;;;9.30;99.90;;;;;;5114632;28;20445;-69
2022/11/14 09:48:53;;;;;;;54.77;28.43;;;9.30;99.90;;;;;;5113638;28;20438;-70
2022/11/14 09:51:23;;;;;;;55.13;28.73;;;9.30;99.90;;;;;;5114070;28;20445;-69
2022/11/14 09:53:56;;;;;;;47.37;27.27;;;9.40;99.90;;;;;;5113558;28;20468;-69
2022/11/14 09:56:25;;;;;;;53.20;28.40;;;9.40;99.90;;;;;;5114257;28;20444;-69
2022/11/14 09:58:52;;;;;;;59.17;27.93;;;9.50;99.90;;;;;;5114760;28;20449;-69
2022/11/14 10:01:32;;;;;;;53.10;28.60;;;9.60;99.90;;;;;;5115227;28;20455;-69
2022/11/14 10:04:09;;;;;;;48.93;25.93;;;9.70;99.90;;;;;;5115026;28;20465;-69
2022/11/14 10:06:42;;;;;;;47.07;28.90;;;9.80;99.90;;;;;;5114219;28;20450;-69
2022/11/14 10:09:32;;;;;;;48.83;28.00;;;9.90;99.90;;;;;;5115252;28;20437;-69
2022/11/14 10:12:05;;;;;;;51.87;27.20;;;9.90;99.90;;;;;;5116496;28;20625;-70
2022/11/14 10:14:48;;;;;;;48.80;26.93;;;10.00;99.90;;;;;;5115956;28;20417;-69
2022/11/14 10:17:41;;;;;;;53.63;29.47;;;10.10;99.90;;;;;;5115355;28;20721;-70
2022/11/14 10:20:16;;;;;;;45.30;27.07;;;10.20;99.90;;;;;;5115587;28;20457;-69
2022/11/14 10:22:57;;;;;;;43.40;25.20;;;10.30;99.90;;;;;;5115260;28;20483;-69
2022/11/14 10:25:29;;;;;;;49.50;27.27;;;10.40;99.90;;;;;;5114888;28;20473;-70
2022/11/14 10:28:15;;;;;;;47.20;26.60;;;10.50;99.90;;;;;;5114983;28;20463;-69
2022/11/14 10:30:51;;;;;;;55.27;27.30;;;10.50;99.90;;;;;;5113936;28;20767;-69
2022/11/14 10:33:32;;;;;;;48.60;25.00;;;10.60;99.90;;;;;;5115193;28;20429;-69
2022/11/14 10:36:07;;;;;;;48.10;25.23;;;10.60;99.90;;;;;;5115904;28;20467;-70
2022/11/14 10:38:39;;;;;;;45.50;25.87;;;10.70;99.90;;;;;;5115126;28;20433;-71
2022/11/14 10:41:09;;;;;;;41.93;23.00;;;10.70;99.90;;;;;;5115712;28;20417;-70
2022/11/14 10:43:40;;;;;;;44.47;24.70;;;10.80;99.90;;;;;;5116016;28;20473;-70
2022/11/14 10:46:13;;;;;;;43.40;24.57;;;10.90;99.90;;;;;;5115669;28;20437;-69
2022/11/14 10:48:45;;;;;;;43.37;24.40;;;11.00;99.90;;;;;;5114614;28;20437;-70
2022/11/14 10:51:20;;;;;;;46.70;26.07;;;11.10;99.90;;;;;;5113483;28;20449;-69
2022/11/14 10:53:54;;;;;;;44.07;25.37;;;11.10;99.90;;;;;;5114414;28;20468;-70
2022/11/14 10:56:21;;;;;;;42.20;24.80;;;11.20;99.90;;;;;;5114577;28;20802;-69
2022/11/14 10:58:48;;;;;;;43.43;25.57;;;11.30;99.90;;;;;;5115591;28;20783;-70
2022/11/14 11:01:36;;;;;;;39.20;24.57;;;11.30;99.90;;;;;;5113070;28;20457;-68
2022/11/14 11:04:26;;;;;;;44.40;25.73;;;11.40;99.90;;;;;;5114490;28;20477;-69
2022/11/14 11:06:55;;;;;;;45.80;25.10;;;11.40;99.90;;;;;;5111864;28;20507;-68
2022/11/14 11:12:14;;;;;;;43.80;25.40;;;11.40;99.90;;;;;;5113921;28;20429;-69
2022/11/14 11:14:42;;;;;;;41.40;24.00;;;11.40;99.90;;;;;;5111655;28;20502;-69
2022/11/14 11:17:17;;;;;;;40.60;24.00;;;11.50;99.90;;;;;;5114185;28;20454;-69
2022/11/14 11:19:47;;;;;;;41.10;23.67;;;11.60;99.90;;;;;;5114883;28;20459;-70
2022/11/14 11:22:35;;;;;;;37.67;23.67;;;11.70;99.90;;;;;;5113756;28;20505;-69
2022/11/14 11:25:02;;;;;;;39.70;23.83;;;11.80;99.90;;;;;;5113871;28;20516;-70
2022/11/14 11:27:30;;;;;;;40.17;25.03;;;11.90;99.90;;;;;;5114208;28;20529;-70
2022/11/14 11:30:17;;;;;;;37.60;23.10;;;11.90;99.90;;;;;;5114092;28;20453;-69
2022/11/14 11:32:45;;;;;;;40.00;24.10;;;12.00;99.90;;;;;;5113903;28;20789;-69
2022/11/14 11:35:15;;;;;;;38.03;24.07;;;12.10;99.90;;;;;;5112162;28;20457;-69
2022/11/14 11:37:53;;;;;;;40.93;24.20;;;12.10;99.90;;;;;;5112314;28;20451;-69
2022/11/14 11:40:24;;;;;;;45.10;25.33;;;12.20;99.90;;;;;;5112328;28;20437;-70
2022/11/14 11:42:57;;;;;;;38.13;23.40;;;12.30;99.90;;;;;;5112352;28;20931;-69
2022/11/14 11:45:24;;;;;;;41.10;23.57;;;12.40;99.90;;;;;;5114249;28;20429;-69
2022/11/14 11:47:58;;;;;;;37.67;23.60;;;12.60;99.90;;;;;;5114056;28;20453;-69
2022/11/14 11:50:28;;;;;;;35.97;22.57;;;13.00;99.90;;;;;;5115070;28;20436;-69
2022/11/14 11:53:06;;;;;;;35.13;22.17;;;13.80;99.90;;;;;;5114619;28;20460;-69
2022/11/14 11:55:37;;;;;;;28.37;19.90;;;14.80;99.90;;;;;;5113071;28;20540;-70
2022/11/14 11:58:12;;;;;;;36.73;21.30;;;16.10;99.90;;;;;;5111926;28;20438;-69
2022/11/14 12:00:39;;;;;;;30.80;20.60;;;17.30;99.90;;;;;;5112990;28;20515;-70
2022/11/14 12:03:12;;;;;;;29.57;20.30;;;18.10;99.90;;;;;;5112470;28;20449;-69
2022/11/14 12:05:54;;;;;;;29.00;20.67;;;18.80;99.90;;;;;;5111793;28;20460;-69
2022/11/14 12:08:32;;;;;;;27.70;19.10;;;19.40;99.90;;;;;;5109692;28;20444;-69
2022/11/14 12:11:01;;;;;;;29.83;19.50;;;20.20;99.90;;;;;;5106181;28;20469;-69
2022/11/14 12:14:01;;;;;;;30.37;20.97;;;21.00;99.90;;;;;;5104322;28;20483;-69
2022/11/14 12:17:09;;;;;;;29.80;21.03;;;21.20;99.90;;;;;;5105814;28;20434;-69
2022/11/14 12:20:00;;;;;;;28.20;20.30;;;21.60;97.40;;;;;;5047758;28;20448;-69
2022/11/14 12:22:58;;;;;;;27.67;20.13;;;22.00;96.20;;;;;;5042414;28;20522;-69
2022/11/14 12:25:57;;;;;;;25.00;19.43;;;22.40;92.30;;;;;;5092822;28;20894;-69
2022/11/14 12:28:45;;;;;;;46.00;31.50;;;22.80;90.20;;;;;;5100905;28;20466;-69
2022/11/14 12:31:15;;;;;;;24.03;19.70;;;23.40;86.20;;;;;;5102030;28;20498;-69
2022/11/14 12:33:49;;;;;;;26.70;20.63;;;23.60;79.20;;;;;;5101533;28;20438;-69
2022/11/14 12:36:16;;;;;;;24.53;19.17;;;23.70;75.20;;;;;;5100979;28;20502;-69
2022/11/14 12:38:48;;;;;;;32.33;20.93;;;23.90;75.40;;;;;;5100111;28;20799;-70
2022/11/14 12:41:24;;;;;;;23.60;18.43;;;24.20;70.20;;;;;;5100708;28;20438;-69
2022/11/14 12:43:51;;;;;;;25.93;19.37;;;24.20;67.80;;;;;;5101196;28;20461;-69
2022/11/14 12:46:18;;;;;;;27.57;19.07;;;24.20;65.50;;;;;;5101583;28;20479;-71
2022/11/14 12:48:46;;;;;;;23.40;19.00;;;23.90;63.70;;;;;;5102624;28;20473;-70
2022/11/14 12:51:49;;;;;;;23.50;17.73;;;23.60;62.50;;;;;;5104766;28;20897;-69